sensor_id;sensor_type;location;lat;lon;timestamp;P1;durP1;ratioP1;P2;durP2;ratioP2
67712;SDS011;54503;55.784;49.138;2022-12-17T00:03:36;15.83;;;6.00;;
67712;SDS011;54503;55.784;49.138;2022-12-17T00:09:00;15.53;;;5.78;;
67712;SDS011;54503;55.784;49.138;2022-12-17T00:14:25;18.40;;;6.80;;
67712;SDS011;54503;55.784;49.138;2022-12-17T00:19:50;22.77;;;7.78;;
67712;SDS011;54503;55.784;49.138;2022-12-17T00:25:15;26.30;;;9.50;;
67712;SDS011;54503;55.784;49.138;2022-12-17T00:30:39;19.30;;;7.20;;
67712;SDS011;54503;55.784;49.138;2022-12-17T00:36:04;19.45;;;6.90;;
67712;SDS011;54503;55.784;49.138;2022-12-17T00:41:29;19.50;;;6.70;;
67712;SDS011;54503;55.784;49.138;2022-12-17T00:46:54;17.57;;;6.35;;
67712;SDS011;54503;55.784;49.138;2022-12-17T00:52:18;22.87;;;7.78;;
67712;SDS011;54503;55.784;49.138;2022-12-17T00:57:43;21.43;;;7.97;;
67712;SDS011;54503;55.784;49.138;2022-12-17T01:03:38;22.30;;;8.23;;
67712;SDS011;54503;55.784;49.138;2022-12-17T01:08:34;27.40;;;9.17;;
67712;SDS011;54503;55.784;49.138;2022-12-17T01:13:59;24.43;;;8.25;;
67712;SDS011;54503;55.784;49.138;2022-12-17T01:19:23;30.43;;;10.65;;
67712;SDS011;54503;55.784;49.138;2022-12-17T01:24:48;32.80;;;10.63;;
67712;SDS011;54503;55.784;49.138;2022-12-17T01:30:13;30.30;;;10.00;;
67712;SDS011;54503;55.784;49.138;2022-12-17T01:35:37;25.10;;;9.33;;
67712;SDS011;54503;55.784;49.138;2022-12-17T01:41:02;21.52;;;8.68;;
67712;SDS011;54503;55.784;49.138;2022-12-17T01:46:29;22.30;;;7.87;;
67712;SDS011;54503;55.784;49.138;2022-12-17T01:51:53;24.73;;;8.20;;
67712;SDS011;54503;55.784;49.138;2022-12-17T01:57:19;31.02;;;10.60;;
67712;SDS011;54503;55.784;49.138;2022-12-17T02:02:43;28.60;;;9.10;;
67712;SDS011;54503;55.784;49.138;2022-12-17T02:08:43;23.92;;;9.33;;
67712;SDS011;54503;55.784;49.138;2022-12-17T02:13:36;20.37;;;8.10;;
67712;SDS011;54503;55.784;49.138;2022-12-17T02:24:49;21.10;;;8.25;;
67712;SDS011;54503;55.784;49.138;2022-12-17T02:30:12;24.83;;;8.40;;
67712;SDS011;54503;55.784;49.138;2022-12-17T02:35:39;21.77;;;8.20;;
67712;SDS011;54503;55.784;49.138;2022-12-17T02:41:04;22.93;;;7.87;;
67712;SDS011;54503;55.784;49.138;2022-12-17T02:46:29;18.77;;;6.77;;
67712;SDS011;54503;55.784;49.138;2022-12-17T02:51:54;18.73;;;7.35;;
67712;SDS011;54503;55.784;49.138;2022-12-17T02:57:19;22.40;;;7.63;;
67712;SDS011;54503;55.784;49.138;2022-12-17T03:02:44;18.90;;;7.28;;
67712;SDS011;54503;55.784;49.138;2022-12-17T03:08:08;23.73;;;7.80;;
67712;SDS011;54503;55.784;49.138;2022-12-17T03:13:33;25.23;;;7.57;;
67712;SDS011;54503;55.784;49.138;2022-12-17T03:18:58;24.57;;;7.05;;
67712;SDS011;54503;55.784;49.138;2022-12-17T03:24:22;21.33;;;7.90;;
67712;SDS011;54503;55.784;49.138;2022-12-17T03:29:47;21.00;;;7.55;;
67712;SDS011;54503;55.784;49.138;2022-12-17T03:35:12;22.55;;;8.10;;
67712;SDS011;54503;55.784;49.138;2022-12-17T03:40:36;26.30;;;8.03;;
67712;SDS011;54503;55.784;49.138;2022-12-17T03:46:01;25.52;;;9.43;;
67712;SDS011;54503;55.784;49.138;2022-12-17T03:51:26;28.37;;;8.77;;
67712;SDS011;54503;55.784;49.138;2022-12-17T03:56:50;19.00;;;7.08;;
67712;SDS011;54503;55.784;49.138;2022-12-17T04:02:15;23.10;;;8.23;;
67712;SDS011;54503;55.784;49.138;2022-12-17T04:07:40;25.93;;;7.87;;
67712;SDS011;54503;55.784;49.138;2022-12-17T04:13:04;21.77;;;8.23;;
67712;SDS011;54503;55.784;49.138;2022-12-17T04:18:29;21.73;;;7.97;;
67712;SDS011;54503;55.784;49.138;2022-12-17T04:23:54;23.00;;;9.13;;
67712;SDS011;54503;55.784;49.138;2022-12-17T04:29:18;28.85;;;8.60;;
67712;SDS011;54503;55.784;49.138;2022-12-17T04:34:43;23.33;;;8.43;;
67712;SDS011;54503;55.784;49.138;2022-12-17T04:40:09;27.02;;;8.80;;
67712;SDS011;54503;55.784;49.138;2022-12-17T04:45:33;30.83;;;9.20;;
67712;SDS011;54503;55.784;49.138;2022-12-17T04:50:58;24.20;;;8.38;;
67712;SDS011;54503;55.784;49.138;2022-12-17T04:56:23;28.45;;;8.03;;
67712;SDS011;54503;55.784;49.138;2022-12-17T05:01:47;21.67;;;8.07;;
67712;SDS011;54503;55.784;49.138;2022-12-17T05:07:12;33.60;;;9.18;;
67712;SDS011;54503;55.784;49.138;2022-12-17T05:12:37;21.37;;;7.60;;
67712;SDS011;54503;55.784;49.138;2022-12-17T05:23:46;25.30;;;8.20;;
67712;SDS011;54503;55.784;49.138;2022-12-17T05:29:11;31.90;;;7.60;;
67712;SDS011;54503;55.784;49.138;2022-12-17T05:34:35;19.92;;;7.28;;
67712;SDS011;54503;55.784;49.138;2022-12-17T05:40:00;19.27;;;6.93;;
67712;SDS011;54503;55.784;49.138;2022-12-17T05:45:27;18.25;;;6.90;;
67712;SDS011;54503;55.784;49.138;2022-12-17T05:50:51;24.15;;;7.83;;
67712;SDS011;54503;55.784;49.138;2022-12-17T05:56:16;22.57;;;7.20;;
67712;SDS011;54503;55.784;49.138;2022-12-17T06:01:41;23.27;;;8.70;;
67712;SDS011;54503;55.784;49.138;2022-12-17T06:07:05;21.67;;;7.90;;
67712;SDS011;54503;55.784;49.138;2022-12-17T06:12:30;24.87;;;8.30;;
67712;SDS011;54503;55.784;49.138;2022-12-17T06:17:55;23.47;;;8.80;;
67712;SDS011;54503;55.784;49.138;2022-12-17T06:23:20;26.03;;;8.53;;
67712;SDS011;54503;55.784;49.138;2022-12-17T06:28:45;22.50;;;8.50;;
67712;SDS011;54503;55.784;49.138;2022-12-17T06:34:09;24.43;;;8.77;;
67712;SDS011;54503;55.784;49.138;2022-12-17T06:39:34;20.43;;;7.03;;
67712;SDS011;54503;55.784;49.138;2022-12-17T06:44:59;20.75;;;7.53;;
67712;SDS011;54503;55.784;49.138;2022-12-17T06:50:23;18.93;;;6.97;;
67712;SDS011;54503;55.784;49.138;2022-12-17T06:55:48;20.95;;;7.47;;
67712;SDS011;54503;55.784;49.138;2022-12-17T07:01:13;28.00;;;8.97;;
67712;SDS011;54503;55.784;49.138;2022-12-17T07:06:37;23.38;;;8.35;;
67712;SDS011;54503;55.784;49.138;2022-12-17T07:12:02;20.97;;;7.85;;
67712;SDS011;54503;55.784;49.138;2022-12-17T07:17:27;26.80;;;8.40;;
67712;SDS011;54503;55.784;49.138;2022-12-17T07:28:36;21.60;;;7.97;;
67712;SDS011;54503;55.784;49.138;2022-12-17T07:34:01;25.43;;;8.00;;
67712;SDS011;54503;55.784;49.138;2022-12-17T07:39:25;23.05;;;7.12;;
67712;SDS011;54503;55.784;49.138;2022-12-17T07:44:50;18.60;;;7.17;;
67712;SDS011;54503;55.784;49.138;2022-12-17T07:50:15;25.97;;;7.53;;
67712;SDS011;54503;55.784;49.138;2022-12-17T07:55:39;22.00;;;7.33;;
67712;SDS011;54503;55.784;49.138;2022-12-17T08:01:04;20.85;;;7.58;;
67712;SDS011;54503;55.784;49.138;2022-12-17T08:06:29;20.52;;;7.80;;
67712;SDS011;54503;55.784;49.138;2022-12-17T08:11:53;47.40;;;8.23;;
67712;SDS011;54503;55.784;49.138;2022-12-17T08:17:18;21.25;;;7.30;;
67712;SDS011;54503;55.784;49.138;2022-12-17T08:22:43;20.93;;;7.80;;
67712;SDS011;54503;55.784;49.138;2022-12-17T08:28:08;20.90;;;7.83;;
67712;SDS011;54503;55.784;49.138;2022-12-17T08:33:33;18.57;;;6.90;;
67712;SDS011;54503;55.784;49.138;2022-12-17T08:38:57;21.83;;;7.77;;
67712;SDS011;54503;55.784;49.138;2022-12-17T08:44:22;24.35;;;7.70;;
67712;SDS011;54503;55.784;49.138;2022-12-17T08:49:47;20.43;;;7.63;;
67712;SDS011;54503;55.784;49.138;2022-12-17T08:55:11;23.27;;;7.45;;
67712;SDS011;54503;55.784;49.138;2022-12-17T09:00:36;24.50;;;8.30;;
67712;SDS011;54503;55.784;49.138;2022-12-17T09:06:01;22.90;;;8.63;;
67712;SDS011;54503;55.784;49.138;2022-12-17T09:11:26;23.35;;;7.72;;
67712;SDS011;54503;55.784;49.138;2022-12-17T09:16:50;27.33;;;9.03;;
67712;SDS011;54503;55.784;49.138;2022-12-17T09:22:15;25.17;;;8.98;;
67712;SDS011;54503;55.784;49.138;2022-12-17T09:27:40;24.80;;;9.65;;
67712;SDS011;54503;55.784;49.138;2022-12-17T09:33:04;21.33;;;8.10;;
67712;SDS011;54503;55.784;49.138;2022-12-17T09:38:29;26.95;;;8.68;;
67712;SDS011;54503;55.784;49.138;2022-12-17T09:49:38;22.50;;;7.90;;
67712;SDS011;54503;55.784;49.138;2022-12-17T09:55:08;18.92;;;7.12;;
67712;SDS011;54503;55.784;49.138;2022-12-17T10:00:29;22.53;;;7.00;;
67712;SDS011;54503;55.784;49.138;2022-12-17T10:05:54;25.97;;;8.38;;
67712;SDS011;54503;55.784;49.138;2022-12-17T10:11:20;23.73;;;8.67;;
67712;SDS011;54503;55.784;49.138;2022-12-17T10:16:45;24.37;;;8.60;;
67712;SDS011;54503;55.784;49.138;2022-12-17T10:22:11;25.75;;;8.48;;
67712;SDS011;54503;55.784;49.138;2022-12-17T10:27:36;22.00;;;8.23;;
67712;SDS011;54503;55.784;49.138;2022-12-17T10:33:35;26.62;;;8.85;;
67712;SDS011;54503;55.784;49.138;2022-12-17T10:38:27;24.63;;;8.77;;
67712;SDS011;54503;55.784;49.138;2022-12-17T10:43:53;26.65;;;9.28;;
67712;SDS011;54503;55.784;49.138;2022-12-17T10:49:18;22.13;;;8.88;;
67712;SDS011;54503;55.784;49.138;2022-12-17T10:54:53;27.20;;;9.20;;
67712;SDS011;54503;55.784;49.138;2022-12-17T11:05:54;37.10;;;9.27;;
67712;SDS011;54503;55.784;49.138;2022-12-17T11:11:19;33.83;;;9.23;;
67712;SDS011;54503;55.784;49.138;2022-12-17T11:34:01;25.27;;;8.67;;
67712;SDS011;54503;55.784;49.138;2022-12-17T11:45:46;29.10;;;9.63;;
67712;SDS011;54503;55.784;49.138;2022-12-17T11:56:55;31.05;;;8.93;;
67712;SDS011;54503;55.784;49.138;2022-12-17T12:35:37;20.05;;;6.72;;
67712;SDS011;54503;55.784;49.138;2022-12-17T12:52:32;22.62;;;7.12;;
67712;SDS011;54503;55.784;49.138;2022-12-17T13:42:16;18.62;;;6.25;;
67712;SDS011;54503;55.784;49.138;2022-12-17T13:47:38;25.63;;;7.80;;
67712;SDS011;54503;55.784;49.138;2022-12-17T13:58:41;21.17;;;6.58;;
67712;SDS011;54503;55.784;49.138;2022-12-17T14:14:51;19.98;;;6.70;;
67712;SDS011;54503;55.784;49.138;2022-12-17T14:19:57;22.63;;;7.27;;
67712;SDS011;54503;55.784;49.138;2022-12-17T14:41:58;22.70;;;7.37;;
67712;SDS011;54503;55.784;49.138;2022-12-17T14:47:25;24.52;;;6.53;;
67712;SDS011;54503;55.784;49.138;2022-12-17T15:09:00;23.98;;;7.60;;
67712;SDS011;54503;55.784;49.138;2022-12-17T15:14:05;22.17;;;6.60;;
67712;SDS011;54503;55.784;49.138;2022-12-17T15:19:24;20.20;;;6.47;;
67712;SDS011;54503;55.784;49.138;2022-12-17T15:25:18;23.47;;;7.60;;
67712;SDS011;54503;55.784;49.138;2022-12-17T15:41:12;21.42;;;6.72;;
67712;SDS011;54503;55.784;49.138;2022-12-17T15:46:37;19.75;;;6.03;;
67712;SDS011;54503;55.784;49.138;2022-12-17T15:51:42;18.55;;;6.47;;
67712;SDS011;54503;55.784;49.138;2022-12-17T16:02:28;21.05;;;6.87;;
67712;SDS011;54503;55.784;49.138;2022-12-17T16:07:33;17.27;;;6.45;;
67712;SDS011;54503;55.784;49.138;2022-12-17T16:12:52;14.65;;;5.83;;
67712;SDS011;54503;55.784;49.138;2022-12-17T16:17:57;17.87;;;5.83;;
67712;SDS011;54503;55.784;49.138;2022-12-17T16:23:02;24.40;;;7.30;;
67712;SDS011;54503;55.784;49.138;2022-12-17T16:28:19;20.40;;;6.70;;
67712;SDS011;54503;55.784;49.138;2022-12-17T16:33:24;21.10;;;7.05;;
67712;SDS011;54503;55.784;49.138;2022-12-17T16:38:43;19.43;;;6.60;;
67712;SDS011;54503;55.784;49.138;2022-12-17T16:44:03;25.15;;;7.12;;
67712;SDS011;54503;55.784;49.138;2022-12-17T16:49:22;20.10;;;6.80;;
67712;SDS011;54503;55.784;49.138;2022-12-17T16:54:46;19.90;;;7.23;;
67712;SDS011;54503;55.784;49.138;2022-12-17T16:59:52;18.27;;;6.75;;
67712;SDS011;54503;55.784;49.138;2022-12-17T17:05:11;20.80;;;6.93;;
67712;SDS011;54503;55.784;49.138;2022-12-17T17:10:30;19.40;;;6.60;;
67712;SDS011;54503;55.784;49.138;2022-12-17T17:15:35;26.77;;;6.85;;
67712;SDS011;54503;55.784;49.138;2022-12-17T17:20:40;20.90;;;6.70;;
67712;SDS011;54503;55.784;49.138;2022-12-17T17:25:45;20.48;;;6.05;;
67712;SDS011;54503;55.784;49.138;2022-12-17T17:31:05;24.10;;;7.90;;
67712;SDS011;54503;55.784;49.138;2022-12-17T17:36:26;23.25;;;7.37;;
67712;SDS011;54503;55.784;49.138;2022-12-17T17:41:43;22.62;;;7.15;;
67712;SDS011;54503;55.784;49.138;2022-12-17T17:46:49;21.87;;;8.53;;
67712;SDS011;54503;55.784;49.138;2022-12-17T17:52:08;23.57;;;7.72;;
67712;SDS011;54503;55.784;49.138;2022-12-17T17:57:27;23.60;;;8.05;;
67712;SDS011;54503;55.784;49.138;2022-12-17T18:02:46;25.93;;;7.77;;
67712;SDS011;54503;55.784;49.138;2022-12-17T18:08:05;20.35;;;8.28;;
67712;SDS011;54503;55.784;49.138;2022-12-17T18:13:10;22.87;;;7.47;;
67712;SDS011;54503;55.784;49.138;2022-12-17T18:18:35;22.82;;;8.05;;
67712;SDS011;54503;55.784;49.138;2022-12-17T18:23:40;26.57;;;8.53;;
67712;SDS011;54503;55.784;49.138;2022-12-17T18:28:46;22.97;;;7.50;;
67712;SDS011;54503;55.784;49.138;2022-12-17T18:34:04;23.23;;;7.27;;
67712;SDS011;54503;55.784;49.138;2022-12-17T18:44:48;28.87;;;9.23;;
67712;SDS011;54503;55.784;49.138;2022-12-17T18:50:08;24.57;;;8.50;;
67712;SDS011;54503;55.784;49.138;2022-12-17T18:55:27;19.98;;;7.37;;
67712;SDS011;54503;55.784;49.138;2022-12-17T19:00:46;20.60;;;6.90;;
67712;SDS011;54503;55.784;49.138;2022-12-17T19:05:51;25.43;;;8.45;;
67712;SDS011;54503;55.784;49.138;2022-12-17T19:11:02;22.73;;;7.53;;
67712;SDS011;54503;55.784;49.138;2022-12-17T19:16:28;19.37;;;6.33;;
67712;SDS011;54503;55.784;49.138;2022-12-17T19:21:34;22.85;;;7.75;;
67712;SDS011;54503;55.784;49.138;2022-12-17T19:26:53;28.23;;;8.03;;
67712;SDS011;54503;55.784;49.138;2022-12-17T19:32:12;27.07;;;8.00;;
67712;SDS011;54503;55.784;49.138;2022-12-17T19:37:31;21.80;;;7.28;;
67712;SDS011;54503;55.784;49.138;2022-12-17T19:42:53;27.40;;;8.90;;
67712;SDS011;54503;55.784;49.138;2022-12-17T19:47:56;25.97;;;8.43;;
67712;SDS011;54503;55.784;49.138;2022-12-17T19:53:02;23.52;;;8.10;;
67712;SDS011;54503;55.784;49.138;2022-12-17T19:58:07;25.52;;;8.25;;
67712;SDS011;54503;55.784;49.138;2022-12-17T20:03:12;20.77;;;7.92;;
67712;SDS011;54503;55.784;49.138;2022-12-17T20:08:31;25.33;;;8.50;;
67712;SDS011;54503;55.784;49.138;2022-12-17T20:13:52;26.35;;;8.10;;
67712;SDS011;54503;55.784;49.138;2022-12-17T20:18:58;20.57;;;7.35;;
67712;SDS011;54503;55.784;49.138;2022-12-17T20:24:03;25.30;;;8.68;;
67712;SDS011;54503;55.784;49.138;2022-12-17T20:29:23;26.17;;;8.35;;
67712;SDS011;54503;55.784;49.138;2022-12-17T20:34:53;22.87;;;7.80;;
67712;SDS011;54503;55.784;49.138;2022-12-17T20:39:59;27.53;;;9.20;;
67712;SDS011;54503;55.784;49.138;2022-12-17T20:45:18;25.27;;;8.48;;
67712;SDS011;54503;55.784;49.138;2022-12-17T20:50:24;23.10;;;7.85;;
67712;SDS011;54503;55.784;49.138;2022-12-17T20:55:44;21.57;;;8.75;;
67712;SDS011;54503;55.784;49.138;2022-12-17T21:00:49;30.17;;;8.30;;
67712;SDS011;54503;55.784;49.138;2022-12-17T21:06:22;28.70;;;9.08;;
67712;SDS011;54503;55.784;49.138;2022-12-17T21:11:28;26.65;;;8.60;;
67712;SDS011;54503;55.784;49.138;2022-12-17T21:16:47;25.70;;;8.43;;
67712;SDS011;54503;55.784;49.138;2022-12-17T21:22:06;27.35;;;8.38;;
67712;SDS011;54503;55.784;49.138;2022-12-17T21:27:25;25.70;;;9.25;;
67712;SDS011;54503;55.784;49.138;2022-12-17T21:32:44;22.07;;;8.10;;
67712;SDS011;54503;55.784;49.138;2022-12-17T21:37:49;30.17;;;9.78;;
67712;SDS011;54503;55.784;49.138;2022-12-17T21:42:54;30.57;;;9.30;;
67712;SDS011;54503;55.784;49.138;2022-12-17T21:48:19;30.08;;;9.13;;
67712;SDS011;54503;55.784;49.138;2022-12-17T21:53:37;24.77;;;8.68;;
67712;SDS011;54503;55.784;49.138;2022-12-17T21:58:42;25.77;;;8.40;;
67712;SDS011;54503;55.784;49.138;2022-12-17T22:04:02;27.58;;;9.28;;
67712;SDS011;54503;55.784;49.138;2022-12-17T22:09:07;20.80;;;7.00;;
67712;SDS011;54503;55.784;49.138;2022-12-17T22:14:26;28.40;;;8.83;;
67712;SDS011;54503;55.784;49.138;2022-12-17T22:19:45;22.90;;;7.75;;
67712;SDS011;54503;55.784;49.138;2022-12-17T22:24:50;29.30;;;9.80;;
67712;SDS011;54503;55.784;49.138;2022-12-17T22:35:53;27.50;;;9.95;;
67712;SDS011;54503;55.784;49.138;2022-12-17T22:41:13;25.08;;;9.58;;
67712;SDS011;54503;55.784;49.138;2022-12-17T22:46:32;31.87;;;10.33;;
67712;SDS011;54503;55.784;49.138;2022-12-17T22:51:38;28.15;;;8.73;;
67712;SDS011;54503;55.784;49.138;2022-12-17T22:56:44;28.23;;;10.10;;
67712;SDS011;54503;55.784;49.138;2022-12-17T23:01:49;29.90;;;9.73;;
67712;SDS011;54503;55.784;49.138;2022-12-17T23:07:07;31.05;;;10.32;;
67712;SDS011;54503;55.784;49.138;2022-12-17T23:12:12;27.35;;;8.95;;
67712;SDS011;54503;55.784;49.138;2022-12-17T23:17:37;29.27;;;10.57;;
67712;SDS011;54503;55.784;49.138;2022-12-17T23:22:42;32.90;;;10.00;;
67712;SDS011;54503;55.784;49.138;2022-12-17T23:27:59;35.73;;;9.50;;
67712;SDS011;54503;55.784;49.138;2022-12-17T23:33:04;29.47;;;10.40;;
67712;SDS011;54503;55.784;49.138;2022-12-17T23:38:26;30.07;;;9.93;;
67712;SDS011;54503;55.784;49.138;2022-12-17T23:43:31;34.08;;;10.28;;
67712;SDS011;54503;55.784;49.138;2022-12-17T23:48:53;30.60;;;10.25;;
67712;SDS011;54503;55.784;49.138;2022-12-17T23:54:17;31.00;;;8.90;;
67712;SDS011;54503;55.784;49.138;2022-12-17T23:59:41;30.02;;;10.60;;
